Time;durP1;ratioP1;P1;durP2;ratioP2;P2;SDS_P1;SDS_P2;PMS_P1;PMS_P2;Temp;Humidity;BMP_temperature;BMP_pressure;BME280_temperature;BME280_humidity;BME280_pressure;Samples;Min_cycle;Max_cycle;Signal;HPM_P1;HPM_P2
2023/01/14 07:55:38;;;;;;;7.80;1.90;;;3.90;99.00;;;;;;5035207;28;20230;-91
2023/01/14 07:58:05;;;;;;;5.70;1.90;;;4.20;98.60;;;;;;5037876;28;20191;-93
2023/01/14 08:04:00;;;;;;;5.63;1.97;;;4.60;97.70;;;;;;5041350;28;20195;-92
2023/01/14 08:10:00;;;;;;;5.80;1.60;;;5.10;96.60;;;;;;5036883;28;20594;-93
2023/01/14 08:12:40;;;;;;;4.33;1.67;;;5.20;95.50;;;;;;5037010;28;20229;-92
2023/01/14 08:15:08;;;;;;;5.40;2.00;;;5.40;95.20;;;;;;5018309;28;20290;-92
2023/01/14 08:17:35;;;;;;;6.45;2.40;;;5.50;95.00;;;;;;5036550;28;20203;-92
2023/01/14 08:25:15;;;;;;;8.17;2.90;;;5.80;93.10;;;;;;5033431;28;20672;-96
2023/01/14 08:30:24;;;;;;;7.00;2.90;;;5.90;92.30;;;;;;5084036;22;20268;-96
2023/01/14 08:35:30;;;;;;;9.13;2.17;;;5.70;92.20;;;;;;5277771;22;20261;-95
2023/01/14 08:38:17;;;;;;;6.33;2.33;;;5.60;92.40;;;;;;5282949;22;20247;-93
2023/01/14 08:40:44;;;;;;;6.47;1.90;;;5.50;93.10;;;;;;5091600;28;20189;-94
2023/01/14 08:46:18;;;;;;;6.83;1.83;;;5.50;93.10;;;;;;5093483;28;20620;-94
2023/01/14 08:48:45;;;;;;;5.70;1.83;;;5.60;93.30;;;;;;5086563;28;20230;-94
2023/01/14 08:51:13;;;;;;;7.13;2.10;;;5.80;92.60;;;;;;5078715;28;20200;-94
2023/01/14 08:53:44;;;;;;;5.43;1.55;;;6.10;92.00;;;;;;5073647;28;20205;-93
2023/01/14 08:56:18;;;;;;;3.80;1.65;;;6.40;91.10;;;;;;5067261;28;20584;-94
2023/01/14 09:01:29;;;;;;;4.10;1.80;;;6.90;90.00;;;;;;5036765;28;20193;-90
2023/01/14 09:36:09;;;;;;;2.03;1.25;;;11.40;30.90;;;;;;5031908;28;20218;-93
2023/01/14 09:47:56;;;;;;;2.53;1.15;;;12.80;26.00;;;;;;4985783;28;20221;-93
2023/01/14 15:28:13;;;;;;;4.20;1.70;;;8.60;47.20;;;;;;5034827;28;20595;-93
2023/01/14 15:30:42;;;;;;;1.95;1.60;;;8.50;53.20;;;;;;5044558;28;20233;-93
2023/01/14 17:21:14;;;;;;;6.05;3.30;;;7.70;66.10;;;;;;4907497;29;20254;-90
2023/01/14 17:27:20;;;;;;;17.50;12.85;;;7.70;69.30;;;;;;4906843;29;20210;-91
2023/01/14 17:29:47;;;;;;;9.13;6.00;;;7.80;74.00;;;;;;4958705;28;20212;-90
2023/01/14 17:32:14;;;;;;;17.05;11.50;;;7.80;67.00;;;;;;5005040;28;20601;-91
2023/01/14 17:34:41;;;;;;;4.85;3.35;;;8.20;73.00;;;;;;5044361;28;20494;-90
2023/01/14 17:37:08;;;;;;;6.00;3.20;;;8.20;63.20;;;;;;5023995;28;20651;-91
2023/01/14 17:39:35;;;;;;;28.10;20.48;;;8.10;63.60;;;;;;5040911;28;20209;-91
2023/01/14 17:44:53;;;;;;;33.67;22.90;;;8.00;70.10;;;;;;5024542;28;20210;-91
2023/01/14 17:47:21;;;;;;;14.32;10.45;;;8.10;68.30;;;;;;5037330;28;20216;-91
2023/01/14 17:49:49;;;;;;;5.25;3.55;;;8.10;66.90;;;;;;5041027;28;20580;-91
2023/01/14 17:52:16;;;;;;;7.50;3.75;;;7.90;65.40;;;;;;5036180;28;20210;-91
2023/01/14 17:54:43;;;;;;;9.27;4.60;;;7.90;62.30;;;;;;5039680;28;20231;-90
2023/01/14 17:59:54;;;;;;;10.73;7.63;;;7.90;61.00;;;;;;5027706;28;20217;-91
2023/01/14 18:02:23;;;;;;;8.80;7.20;;;8.00;65.30;;;;;;5028368;28;20202;-90
2023/01/14 18:04:51;;;;;;;4.15;2.97;;;8.20;63.10;;;;;;5039419;28;20203;-90
2023/01/14 18:07:18;;;;;;;7.00;4.68;;;8.20;53.00;;;;;;5043479;28;20202;-90
2023/01/14 18:09:45;;;;;;;5.78;3.65;;;8.20;56.20;;;;;;5042005;28;20214;-91
2023/01/14 18:14:54;;;;;;;6.50;3.75;;;8.10;46.80;;;;;;5040160;28;20225;-90
2023/01/14 18:17:21;;;;;;;3.60;2.53;;;8.20;46.90;;;;;;5041319;28;20209;-90
2023/01/14 18:19:48;;;;;;;3.08;2.30;;;8.30;45.50;;;;;;5036904;28;20232;-92
2023/01/14 18:22:15;;;;;;;4.65;3.25;;;8.30;44.30;;;;;;5038936;28;20206;-90
2023/01/14 18:24:42;;;;;;;4.68;2.97;;;8.40;46.20;;;;;;5041129;28;20206;-91
2023/01/14 18:27:09;;;;;;;2.88;2.13;;;8.30;42.10;;;;;;5036447;28;20207;-92
2023/01/14 18:29:38;;;;;;;2.70;2.28;;;8.30;40.70;;;;;;5043489;28;20700;-91
2023/01/14 18:32:05;;;;;;;4.35;2.60;;;8.10;45.60;;;;;;5036115;28;20563;-92
2023/01/14 18:34:34;;;;;;;3.45;2.40;;;8.30;46.90;;;;;;5036780;28;20205;-91
2023/01/14 18:37:02;;;;;;;2.65;2.38;;;8.20;46.80;;;;;;5037888;28;20210;-90
2023/01/14 18:39:29;;;;;;;6.10;2.60;;;8.20;46.90;;;;;;5035488;28;20587;-91
2023/01/14 18:41:56;;;;;;;5.88;3.58;;;8.20;45.30;;;;;;5037211;28;20210;-91
2023/01/14 18:44:23;;;;;;;4.72;3.33;;;8.30;46.90;;;;;;5037427;28;20201;-92
2023/01/14 18:49:34;;;;;;;3.60;2.55;;;8.80;40.60;;;;;;5029490;28;20229;-93
2023/01/14 18:52:01;;;;;;;18.00;12.73;;;8.70;38.70;;;;;;5039656;28;20202;-91
2023/01/14 18:54:28;;;;;;;7.05;4.35;;;8.70;36.60;;;;;;5041863;28;20214;-92
2023/01/14 18:56:55;;;;;;;6.18;3.30;;;8.80;34.80;;;;;;5038965;28;20596;-90
2023/01/14 18:59:22;;;;;;;7.97;5.60;;;8.80;36.30;;;;;;5018994;28;20263;-92
2023/01/14 19:04:37;;;;;;;9.68;6.80;;;8.90;38.00;;;;;;5038574;28;20224;-92
2023/01/14 19:07:04;;;;;;;18.08;12.90;;;8.70;43.10;;;;;;5040320;28;20571;-91
2023/01/14 19:09:31;;;;;;;3.50;2.55;;;8.80;46.70;;;;;;5039702;28;21400;-91
2023/01/14 19:12:05;;;;;;;7.80;5.72;;;8.60;47.20;;;;;;5039738;28;20198;-91
2023/01/14 19:14:32;;;;;;;3.80;3.10;;;8.50;49.60;;;;;;5045259;28;20217;-91
2023/01/14 19:19:44;;;;;;;7.10;3.80;;;8.30;56.20;;;;;;5024810;28;20202;-91
2023/01/14 19:22:11;;;;;;;7.97;6.55;;;8.20;56.30;;;;;;5038758;28;20209;-92
2023/01/14 19:24:38;;;;;;;6.10;4.78;;;8.40;57.40;;;;;;5040060;28;20545;-91
2023/01/14 19:27:06;;;;;;;4.43;3.47;;;8.70;54.50;;;;;;5038638;28;20600;-92
2023/01/14 19:29:33;;;;;;;3.88;3.45;;;8.80;52.10;;;;;;5039929;28;20218;-91
2023/01/14 19:32:01;;;;;;;6.60;4.60;;;8.80;52.40;;;;;;5035932;28;20209;-91
2023/01/14 19:34:30;;;;;;;6.03;4.53;;;8.80;51.80;;;;;;5038439;28;20222;-90
2023/01/14 19:36:58;;;;;;;6.57;4.50;;;8.90;57.20;;;;;;5035035;28;20215;-91
2023/01/14 19:39:27;;;;;;;4.63;3.60;;;8.80;56.30;;;;;;5042565;28;20868;-91
2023/01/14 19:41:54;;;;;;;4.30;3.33;;;8.60;56.00;;;;;;5012004;28;20210;-91
2023/01/14 19:44:22;;;;;;;5.32;3.20;;;8.40;59.00;;;;;;5038665;28;20210;-88
2023/01/14 19:46:49;;;;;;;5.13;3.50;;;8.20;54.80;;;;;;5042173;28;20206;-91
2023/01/14 19:49:18;;;;;;;3.88;3.08;;;8.20;58.60;;;;;;5037775;28;20221;-91
2023/01/14 19:51:45;;;;;;;6.20;4.18;;;8.20;59.90;;;;;;5039575;28;20720;-91
2023/01/14 19:54:12;;;;;;;6.05;4.50;;;8.30;58.10;;;;;;5033969;28;20260;-91
2023/01/14 19:56:39;;;;;;;6.57;4.25;;;8.40;58.00;;;;;;5044073;28;20214;-91
2023/01/14 19:59:07;;;;;;;6.60;3.80;;;8.50;52.00;;;;;;5036873;28;20663;-91
2023/01/14 20:01:36;;;;;;;5.63;3.40;;;8.70;50.30;;;;;;5046943;28;20285;-91
2023/01/14 20:04:06;;;;;;;4.03;3.40;;;8.60;49.50;;;;;;5040838;28;20204;-91
2023/01/14 20:09:17;;;;;;;4.30;2.80;;;8.50;48.90;;;;;;5042132;28;20574;-90
2023/01/14 20:11:45;;;;;;;3.10;2.65;;;8.60;41.60;;;;;;5041011;28;20205;-91
2023/01/14 20:14:12;;;;;;;4.90;2.22;;;8.70;38.30;;;;;;5043443;28;20210;-89
2023/01/14 20:19:23;;;;;;;3.00;2.20;;;8.70;34.90;;;;;;5040383;28;20625;-92
2023/01/14 20:27:39;;;;;;;2.67;2.10;;;8.80;32.70;;;;;;5026739;28;20263;-92
2023/01/14 20:38:18;;;;;;;2.22;2.00;;;8.70;33.50;;;;;;5023215;28;20299;-92
2023/01/14 20:46:31;;;;;;;2.95;1.50;;;8.70;31.80;;;;;;5034695;28;20646;-92
2023/01/14 21:22:59;;;;;;;3.08;1.90;;;8.80;31.90;;;;;;5081730;28;20251;-91
2023/01/14 21:31:04;;;;;;;3.28;1.80;;;8.90;31.10;;;;;;5057200;28;20217;-91
2023/01/14 21:33:33;;;;;;;2.17;1.98;;;8.90;31.90;;;;;;5085954;28;20207;-92
2023/01/14 21:36:04;;;;;;;1.88;1.63;;;8.90;32.00;;;;;;5085111;28;20225;-92
2023/01/14 21:38:33;;;;;;;3.28;1.77;;;8.90;31.70;;;;;;5083418;28;20244;-93
2023/01/14 21:43:44;;;;;;;1.58;1.48;;;8.90;32.20;;;;;;5085501;28;20200;-92
2023/01/14 21:49:26;;;;;;;2.95;1.80;;;9.10;30.30;;;;;;5089483;28;20266;-91
2023/01/14 21:51:55;;;;;;;3.58;1.80;;;9.10;30.90;;;;;;5086120;28;20204;-92
2023/01/14 21:54:22;;;;;;;2.00;1.60;;;9.10;30.20;;;;;;5086495;28;20204;-91
2023/01/14 21:56:49;;;;;;;2.75;1.63;;;9.00;30.30;;;;;;5086203;28;20274;-91
2023/01/14 21:59:16;;;;;;;1.73;1.63;;;9.00;30.50;;;;;;5078108;28;22310;-91
2023/01/14 22:01:45;;;;;;;2.30;1.63;;;9.00;29.50;;;;;;5078732;28;20223;-91
2023/01/14 22:04:11;;;;;;;2.42;1.50;;;9.20;29.50;;;;;;5081729;28;20220;-91
2023/01/14 22:06:38;;;;;;;2.58;1.40;;;9.20;28.90;;;;;;5085067;28;20325;-91
2023/01/14 22:09:06;;;;;;;1.80;1.60;;;9.10;28.70;;;;;;5066665;28;20204;-91
2023/01/14 22:11:34;;;;;;;1.65;1.55;;;9.20;28.90;;;;;;5063524;28;20511;-91
2023/01/14 22:14:01;;;;;;;2.20;1.15;;;9.20;27.80;;;;;;5069798;28;20241;-91
2023/01/14 22:16:28;;;;;;;1.50;1.40;;;9.30;27.70;;;;;;5074446;28;20625;-92
2023/01/14 22:18:57;;;;;;;2.20;1.50;;;9.30;27.30;;;;;;5068109;28;20252;-91
2023/01/14 22:21:25;;;;;;;1.80;1.52;;;9.20;27.60;;;;;;5072082;28;20208;-91
2023/01/14 22:23:52;;;;;;;2.03;1.25;;;9.20;27.10;;;;;;5063657;28;20217;-91
2023/01/14 22:26:19;;;;;;;2.80;1.65;;;9.20;27.20;;;;;;5065448;28;20651;-91
2023/01/14 22:28:48;;;;;;;1.73;1.40;;;9.20;26.90;;;;;;5067654;28;20682;-91
2023/01/14 22:31:16;;;;;;;2.65;1.73;;;9.30;28.00;;;;;;5065626;28;20763;-92
2023/01/14 22:33:43;;;;;;;1.40;1.30;;;9.30;27.30;;;;;;5068910;28;20208;-91
2023/01/14 22:36:12;;;;;;;1.60;1.50;;;9.20;27.40;;;;;;5070784;28;20229;-91
2023/01/14 22:38:39;;;;;;;1.73;1.40;;;9.20;26.60;;;;;;5068255;28;20233;-92
2023/01/14 22:41:06;;;;;;;1.48;1.38;;;9.20;25.80;;;;;;5068176;28;20263;-91
2023/01/14 22:43:37;;;;;;;1.90;1.30;;;9.20;26.20;;;;;;5067110;28;20209;-91
2023/01/14 22:46:08;;;;;;;1.92;1.50;;;9.20;26.20;;;;;;5071840;28;20197;-92
2023/01/14 22:48:36;;;;;;;1.95;1.48;;;9.30;25.20;;;;;;5066012;28;20202;-92
2023/01/14 22:51:03;;;;;;;1.60;1.50;;;9.30;25.70;;;;;;5068013;28;20212;-91
2023/01/14 22:53:34;;;;;;;1.73;1.35;;;9.30;24.50;;;;;;5067741;28;20241;-91
2023/01/14 22:56:02;;;;;;;1.50;1.40;;;9.20;24.80;;;;;;5062878;28;20389;-91
2023/01/14 22:58:30;;;;;;;1.70;1.30;;;9.20;25.40;;;;;;5070394;28;20581;-91
2023/01/14 23:00:57;;;;;;;1.75;1.58;;;9.20;25.10;;;;;;5070920;28;20213;-91
2023/01/14 23:03:24;;;;;;;1.55;1.20;;;9.20;26.10;;;;;;5067539;28;20261;-92
2023/01/14 23:05:51;;;;;;;1.52;1.23;;;9.20;25.20;;;;;;5066872;28;20647;-92
2023/01/14 23:08:18;;;;;;;3.00;1.48;;;9.20;25.40;;;;;;5069423;28;20200;-92
2023/01/14 23:11:12;;;;;;;3.00;1.50;;;9.20;24.50;;;;;;5072394;28;20231;-91
2023/01/14 23:13:35;;;;;;;2.17;1.60;;;9.20;26.20;;;;;;5066109;28;21029;-91
2023/01/14 23:18:46;;;;;;;2.00;1.55;;;9.00;26.10;;;;;;5067316;28;20225;-91
2023/01/14 23:23:57;;;;;;;3.03;1.60;;;9.00;25.80;;;;;;5068577;28;20302;-91
2023/01/14 23:29:07;;;;;;;1.58;1.45;;;9.00;26.60;;;;;;5058972;28;20209;-91
2023/01/14 23:31:34;;;;;;;1.63;1.52;;;9.00;25.30;;;;;;5070296;28;20205;-91
2023/01/14 23:34:02;;;;;;;2.45;1.45;;;9.10;26.20;;;;;;5071246;28;20224;-91
2023/01/14 23:36:29;;;;;;;2.25;1.75;;;9.00;25.30;;;;;;5066481;28;20225;-91
2023/01/14 23:38:56;;;;;;;2.28;1.60;;;9.00;25.60;;;;;;5069537;28;20585;-91
2023/01/14 23:44:06;;;;;;;1.70;1.40;;;8.90;27.80;;;;;;5069561;28;20196;-92
2023/01/14 23:46:33;;;;;;;1.75;1.52;;;8.90;27.00;;;;;;5068247;28;20208;-92
2023/01/14 23:49:00;;;;;;;2.80;1.52;;;8.80;28.00;;;;;;5072753;28;20292;-91
2023/01/14 23:51:26;;;;;;;1.80;1.50;;;8.80;31.00;;;;;;5066852;28;20593;-91
2023/01/14 23:53:53;;;;;;;1.95;1.70;;;8.80;29.60;;;;;;5064999;28;20197;-91
2023/01/14 23:56:21;;;;;;;1.92;1.50;;;8.70;32.20;;;;;;5062513;28;20241;-91
2023/01/14 23:58:50;;;;;;;1.48;1.38;;;8.70;29.40;;;;;;5070165;28;20546;-92
